createdAt,value
2018-01-06T00:00:49.854Z,99.99
2018-01-06T00:01:49.838Z,99.99
2018-01-06T00:02:49.837Z,99.99
2018-01-06T00:03:49.832Z,99.99
2018-01-06T00:04:49.839Z,99.99
2018-01-06T00:05:49.827Z,99.99
2018-01-06T00:06:49.825Z,99.99
2018-01-06T00:07:49.818Z,99.99
2018-01-06T00:08:49.812Z,99.99
2018-01-06T00:09:50.083Z,99.99
2018-01-06T00:10:49.800Z,99.99
2018-01-06T00:11:50.065Z,99.99
2018-01-06T00:12:50.038Z,99.99
2018-01-06T00:13:50.045Z,99.99
2018-01-06T00:14:49.783Z,99.99
2018-01-06T00:15:50.055Z,99.99
2018-01-06T00:16:49.772Z,99.99
2018-01-06T00:17:50.029Z,99.99
2018-01-06T00:18:50.030Z,99.99
2018-01-06T00:19:50.022Z,99.99
2018-01-06T00:20:50.026Z,99.99
2018-01-06T00:21:50.018Z,99.99
2018-01-06T00:22:50.024Z,99.99
2018-01-06T00:23:50.014Z,99.99
2018-01-06T00:24:49.745Z,99.99
2018-01-06T00:25:49.992Z,99.99
2018-01-06T00:26:49.983Z,99.99
2018-01-06T00:27:49.988Z,99.99
2018-01-06T00:28:49.979Z,99.99
2018-01-06T00:29:49.979Z,99.99
2018-01-06T00:30:49.959Z,99.99
2018-01-06T00:31:49.967Z,99.99
2018-01-06T00:32:49.957Z,99.99
2018-01-06T00:33:49.685Z,99.99
2018-01-06T00:34:49.959Z,99.99
2018-01-06T00:35:49.944Z,99.99
2018-01-06T00:36:49.908Z,99.99
2018-01-06T00:37:49.664Z,99.99
2018-01-06T00:38:49.934Z,99.99
2018-01-06T00:39:49.664Z,99.99
2018-01-06T00:40:49.907Z,99.99
2018-01-06T00:41:49.923Z,99.99
2018-01-06T00:42:49.652Z,99.99
2018-01-06T00:43:49.891Z,99.99
2018-01-06T00:44:49.898Z,99.99
2018-01-06T00:45:49.631Z,99.99
2018-01-06T00:46:49.877Z,99.99
2018-01-06T00:47:49.895Z,99.99
2018-01-06T00:48:49.616Z,99.99
2018-01-06T00:49:49.890Z,99.99
2018-01-06T00:50:49.850Z,99.99
2018-01-06T00:51:49.868Z,99.99
2018-01-06T00:52:49.855Z,99.99
2018-01-06T00:53:49.620Z,99.99
2018-01-06T00:54:49.848Z,99.99
2018-01-06T00:55:49.587Z,99.99
2018-01-06T00:56:49.845Z,99.99
2018-01-06T00:57:49.570Z,99.99
2018-01-06T00:58:49.819Z,99.99
2018-01-06T00:59:49.811Z,99.99
2018-01-06T01:00:49.561Z,99.99
2018-01-06T01:01:49.605Z,99.99
2018-01-06T01:02:49.819Z,99.99
2018-01-06T01:03:49.545Z,99.99
2018-01-06T01:04:49.791Z,99.99
2018-01-06T01:05:49.535Z,99.99
2018-01-06T01:06:49.783Z,99.99
2018-01-06T01:07:49.778Z,99.99
2018-01-06T01:08:49.521Z,99.99
2018-01-06T01:09:49.773Z,99.99
2018-01-06T01:10:49.761Z,99.99
2018-01-06T01:11:49.753Z,99.99
2018-01-06T01:12:49.748Z,99.99
2018-01-06T01:13:49.751Z,99.99
2018-01-06T01:14:49.747Z,99.99
2018-01-06T01:15:49.737Z,99.99
2018-01-06T01:16:49.737Z,99.99
2018-01-06T01:17:49.480Z,99.99
2018-01-06T01:18:49.722Z,99.99
2018-01-06T01:19:49.466Z,99.99
2018-01-06T01:20:49.465Z,99.99
2018-01-06T01:21:49.458Z,99.99
2018-01-06T01:22:49.732Z,99.99
2018-01-06T01:23:49.697Z,99.99
2018-01-06T01:24:49.694Z,99.99
2018-01-06T01:25:49.689Z,99.99
2018-01-06T01:26:49.434Z,99.99
2018-01-06T01:27:49.680Z,99.99
2018-01-06T01:28:49.683Z,99.99
2018-01-06T01:29:49.671Z,99.99
2018-01-06T01:30:49.672Z,99.99
2018-01-06T01:31:49.411Z,99.99
2018-01-06T01:32:49.406Z,99.99
2018-01-06T01:33:49.654Z,99.99
2018-01-06T01:34:49.395Z,99.99
2018-01-06T01:35:49.643Z,99.99
2018-01-06T01:36:49.637Z,99.99
2018-01-06T01:37:49.632Z,99.99
2018-01-06T01:38:49.389Z,99.99
2018-01-06T01:39:49.623Z,99.99
2018-01-06T01:40:49.617Z,99.99
2018-01-06T01:41:49.616Z,99.99
2018-01-06T01:42:49.611Z,99.99
2018-01-06T01:43:49.609Z,99.99
2018-01-06T01:44:49.394Z,99.99
2018-01-06T01:45:49.351Z,99.99
2018-01-06T01:46:49.593Z,99.99
2018-01-06T01:47:49.586Z,99.99
2018-01-06T01:48:49.595Z,99.99
2018-01-06T01:49:49.581Z,99.99
2018-01-06T01:50:49.582Z,99.99
2018-01-06T01:51:49.572Z,99.99
2018-01-06T01:52:49.311Z,99.99
2018-01-06T01:53:49.562Z,99.99
2018-01-06T01:54:49.309Z,99.99
2018-01-06T01:55:49.750Z,99.99
2018-01-06T01:56:49.294Z,99.99
2018-01-06T01:57:49.293Z,99.99
2018-01-06T01:58:49.546Z,99.99
2018-01-06T01:59:49.533Z,99.99
2018-01-06T02:00:49.529Z,99.99
2018-01-06T02:01:49.547Z,99.99
2018-01-06T02:02:49.524Z,99.99
2018-01-06T02:03:49.517Z,99.99
2018-01-06T02:04:49.262Z,99.99
2018-01-06T02:05:49.505Z,99.99
2018-01-06T02:06:49.504Z,99.99
2018-01-06T02:07:49.496Z,99.99
2018-01-06T02:08:49.491Z,99.99
2018-01-06T02:09:49.488Z,99.99
2018-01-06T02:10:49.483Z,99.99
2018-01-06T02:11:49.482Z,99.99
2018-01-06T02:12:49.221Z,99.99
2018-01-06T02:13:49.470Z,99.99
2018-01-06T02:14:49.465Z,99.99
2018-01-06T02:15:49.461Z,99.99
2018-01-06T02:16:49.458Z,99.99
2018-01-06T02:17:49.453Z,99.99
2018-01-06T02:18:49.469Z,99.99
2018-01-06T02:19:49.444Z,99.99
2018-01-06T02:20:49.441Z,99.99
2018-01-06T02:21:49.179Z,99.99
2018-01-06T02:22:49.429Z,99.99
2018-01-06T02:23:49.428Z,99.99
2018-01-06T02:24:49.427Z,99.99
2018-01-06T02:25:49.416Z,99.99
2018-01-06T02:26:49.412Z,99.99
2018-01-06T02:27:49.405Z,99.99
2018-01-06T02:28:49.402Z,99.99
2018-01-06T02:29:49.400Z,99.99
2018-01-06T02:30:49.398Z,99.99
2018-01-06T02:31:49.136Z,99.99
2018-01-06T02:32:49.137Z,99.99
2018-01-06T02:33:49.383Z,99.99
2018-01-06T02:34:49.125Z,99.99
2018-01-06T02:35:49.373Z,99.99
2018-01-06T02:36:49.366Z,99.99
2018-01-06T02:37:49.380Z,99.99
2018-01-06T02:38:49.356Z,99.99
2018-01-06T02:39:49.348Z,99.99
2018-01-06T02:40:49.346Z,99.99
2018-01-06T02:41:49.346Z,99.99
2018-01-06T02:42:49.337Z,99.99
2018-01-06T02:43:49.336Z,99.99
2018-01-06T02:44:49.328Z,99.99
2018-01-06T02:45:49.072Z,99.99
2018-01-06T02:46:49.321Z,99.99
2018-01-06T02:47:49.326Z,99.99
2018-01-06T02:48:49.319Z,99.99
2018-01-06T02:49:49.316Z,99.99
2018-01-06T02:50:49.050Z,99.99
2018-01-06T02:51:49.300Z,99.99
2018-01-06T02:52:49.292Z,99.99
2018-01-06T02:53:49.291Z,99.99
2018-01-06T02:54:49.282Z,99.99
2018-01-06T02:55:49.026Z,99.99
2018-01-06T02:56:49.025Z,99.99
2018-01-06T02:57:49.021Z,99.99
2018-01-06T02:58:49.016Z,99.99
2018-01-06T02:59:49.009Z,99.99
2018-01-06T03:00:49.255Z,99.99
2018-01-06T03:01:49.253Z,99.99
2018-01-06T03:02:48.997Z,99.99
2018-01-06T03:03:49.243Z,99.99
2018-01-06T03:04:48.986Z,99.99
2018-01-06T03:05:49.233Z,99.99
2018-01-06T03:06:48.981Z,99.99
2018-01-06T03:07:48.971Z,99.99
2018-01-06T03:08:48.969Z,99.99
2018-01-06T03:09:49.212Z,99.99
2018-01-06T03:10:48.956Z,99.99
2018-01-06T03:11:49.204Z,99.99
2018-01-06T03:12:48.954Z,99.99
2018-01-06T03:13:49.197Z,99.99
2018-01-06T03:14:49.192Z,99.99
2018-01-06T03:15:48.944Z,99.99
2018-01-06T03:16:49.182Z,99.99
2018-01-06T03:17:48.926Z,99.99
2018-01-06T03:18:49.173Z,99.99
2018-01-06T03:19:49.168Z,99.99
2018-01-06T03:20:48.910Z,99.99
2018-01-06T03:21:49.168Z,99.99
2018-01-06T03:22:48.909Z,99.99
2018-01-06T03:23:48.905Z,99.99
2018-01-06T03:24:49.145Z,99.99
2018-01-06T03:25:48.891Z,99.99
2018-01-06T03:26:49.136Z,99.99
2018-01-06T03:27:49.130Z,99.99
2018-01-06T03:28:49.126Z,99.99
2018-01-06T03:29:49.122Z,99.99
2018-01-06T03:30:49.119Z,99.99
2018-01-06T03:31:49.114Z,99.99
2018-01-06T03:32:49.107Z,99.99
2018-01-06T03:33:49.106Z,99.99
2018-01-06T03:34:48.852Z,99.99
2018-01-06T03:35:49.119Z,99.99
2018-01-06T03:36:49.088Z,99.99
2018-01-06T03:37:49.084Z,99.99
2018-01-06T03:38:49.079Z,99.99
2018-01-06T03:39:49.073Z,99.99
2018-01-06T03:40:49.065Z,99.99
2018-01-06T03:41:48.840Z,99.99
2018-01-06T03:42:49.092Z,99.99
2018-01-06T03:43:49.056Z,99.99
2018-01-06T03:44:49.055Z,99.99
2018-01-06T03:45:49.044Z,99.99
2018-01-06T03:46:49.040Z,99.99
2018-01-06T03:47:49.038Z,99.99
2018-01-06T03:48:49.030Z,99.99
2018-01-06T03:49:49.033Z,99.99
2018-01-06T03:50:49.023Z,99.99
2018-01-06T03:51:49.012Z,99.99
2018-01-06T03:52:48.762Z,99.99
2018-01-06T03:53:49.007Z,99.99
2018-01-06T03:54:48.998Z,99.99
2018-01-06T03:55:48.995Z,99.99
2018-01-06T03:56:48.994Z,99.99
2018-01-06T03:57:48.987Z,99.99
2018-01-06T03:58:48.987Z,99.99
2018-01-06T03:59:48.722Z,99.99
2018-01-06T04:00:48.975Z,99.99
2018-01-06T04:01:48.964Z,99.99
2018-01-06T04:02:48.967Z,99.99
2018-01-06T04:03:48.950Z,99.99
2018-01-06T04:04:48.693Z,99.99
2018-01-06T04:05:48.941Z,99.99
2018-01-06T04:06:48.936Z,99.99
2018-01-06T04:07:48.935Z,99.99
2018-01-06T04:08:48.930Z,99.99
2018-01-06T04:09:48.921Z,99.99
2018-01-06T04:10:48.914Z,99.99
2018-01-06T04:11:48.657Z,99.99
2018-01-06T04:12:48.904Z,99.99
2018-01-06T04:13:48.651Z,99.99
2018-01-06T04:14:48.646Z,99.99
2018-01-06T04:15:48.887Z,99.99
2018-01-06T04:16:48.886Z,99.99
2018-01-06T04:17:48.888Z,99.99
2018-01-06T04:18:48.876Z,99.99
2018-01-06T04:19:48.874Z,99.99
2018-01-06T04:20:48.868Z,99.99
2018-01-06T04:21:48.858Z,99.99
2018-01-06T04:22:48.853Z,99.99
2018-01-06T04:23:48.855Z,99.99
2018-01-06T04:24:48.842Z,99.99
2018-01-06T04:25:48.839Z,99.99
2018-01-06T04:26:48.838Z,99.99
2018-01-06T04:27:48.577Z,99.99
2018-01-06T04:28:48.836Z,99.99
2018-01-06T04:29:48.833Z,99.99
2018-01-06T04:30:48.814Z,99.99
2018-01-06T04:31:48.806Z,99.99
2018-01-06T04:32:48.803Z,99.99
2018-01-06T04:33:48.543Z,99.99
2018-01-06T04:34:48.792Z,99.99
2018-01-06T04:35:48.787Z,99.99
2018-01-06T04:36:48.781Z,99.99
2018-01-06T04:37:48.784Z,99.99
2018-01-06T04:38:48.775Z,99.99
2018-01-06T04:39:48.777Z,99.99
2018-01-06T04:40:48.774Z,99.99
2018-01-06T04:41:48.758Z,99.99
2018-01-06T04:42:48.500Z,99.99
2018-01-06T04:43:48.746Z,99.99
2018-01-06T04:44:48.497Z,99.99
2018-01-06T04:45:48.743Z,99.99
2018-01-06T04:46:48.732Z,99.99
2018-01-06T04:47:48.477Z,99.99
2018-01-06T04:48:48.725Z,99.99
2018-01-06T04:49:48.728Z,99.99
2018-01-06T04:50:48.726Z,99.99
2018-01-06T04:51:48.727Z,99.99
2018-01-06T04:52:48.451Z,99.99
2018-01-06T04:53:48.695Z,99.99
2018-01-06T04:54:48.697Z,99.99
2018-01-06T04:55:48.688Z,99.99
2018-01-06T04:56:48.435Z,99.99
2018-01-06T04:57:48.435Z,99.99
2018-01-06T04:58:48.672Z,99.99
2018-01-06T04:59:48.672Z,99.99
2018-01-06T05:00:48.411Z,99.99
2018-01-06T05:01:49.456Z,99.99
2018-01-06T05:02:48.668Z,99.99
2018-01-06T05:03:48.398Z,99.99
2018-01-06T05:04:48.642Z,99.99
2018-01-06T05:05:48.642Z,99.99
2018-01-06T05:06:48.666Z,99.99
2018-01-06T05:07:48.646Z,99.99
2018-01-06T05:08:48.634Z,99.99
2018-01-06T05:09:48.619Z,99.99
2018-01-06T05:10:48.616Z,99.99
2018-01-06T05:11:48.604Z,99.99
2018-01-06T05:12:48.349Z,99.99
2018-01-06T05:13:48.605Z,99.99
2018-01-06T05:14:48.342Z,99.99
2018-01-06T05:15:48.586Z,99.99
2018-01-06T05:16:48.333Z,99.99
2018-01-06T05:17:48.576Z,99.99
2018-01-06T05:18:48.574Z,99.99
2018-01-06T05:19:48.314Z,99.99
2018-01-06T05:20:48.562Z,99.99
2018-01-06T05:21:48.566Z,99.99
2018-01-06T05:22:48.553Z,99.99
2018-01-06T05:23:48.553Z,99.99
2018-01-06T05:24:48.543Z,99.99
2018-01-06T05:25:48.536Z,99.99
2018-01-06T05:26:48.530Z,99.99
2018-01-06T05:27:48.278Z,99.99
2018-01-06T05:28:48.525Z,99.99
2018-01-06T05:29:48.516Z,99.99
2018-01-06T05:30:48.513Z,99.99
2018-01-06T05:31:48.507Z,99.99
2018-01-06T05:32:48.500Z,99.99
2018-01-06T05:33:48.498Z,99.99
2018-01-06T05:34:48.495Z,99.99
2018-01-06T05:35:48.494Z,99.99
2018-01-06T05:36:48.481Z,99.99
2018-01-06T05:37:48.477Z,99.99
2018-01-06T05:38:48.218Z,99.99
2018-01-06T05:39:48.464Z,99.99
2018-01-06T05:40:48.459Z,99.99
2018-01-06T05:41:48.453Z,99.99
2018-01-06T05:42:48.457Z,99.99
2018-01-06T05:43:48.443Z,99.99
2018-01-06T05:44:48.438Z,99.99
2018-01-06T05:45:48.435Z,99.99
2018-01-06T05:46:48.429Z,99.99
2018-01-06T05:47:48.424Z,99.99
2018-01-06T05:48:48.420Z,99.99
2018-01-06T05:49:48.415Z,99.99
2018-01-06T05:50:48.407Z,99.99
2018-01-06T05:51:48.411Z,99.99
2018-01-06T05:52:48.412Z,99.99
2018-01-06T05:53:48.394Z,99.99
2018-01-06T05:54:48.393Z,99.99
2018-01-06T05:55:48.131Z,99.99
2018-01-06T05:56:48.380Z,99.99
2018-01-06T05:57:48.376Z,99.99
2018-01-06T05:58:48.376Z,99.99
2018-01-06T05:59:48.368Z,99.99
2018-01-06T06:00:48.371Z,99.99
2018-01-06T06:01:48.357Z,99.99
2018-01-06T06:02:48.353Z,99.99
2018-01-06T06:03:48.355Z,99.99
2018-01-06T06:04:48.348Z,99.99
2018-01-06T06:05:48.332Z,99.99
2018-01-06T06:06:48.325Z,99.99
2018-01-06T06:07:48.324Z,99.99
2018-01-06T06:08:48.322Z,99.99
2018-01-06T06:09:48.076Z,99.99
2018-01-06T06:10:48.064Z,99.99
2018-01-06T06:11:48.068Z,99.99
2018-01-06T06:12:48.141Z,99.99
2018-01-06T06:13:48.306Z,99.99
2018-01-06T06:14:48.046Z,99.99
2018-01-06T06:15:48.035Z,99.99
2018-01-06T06:16:48.288Z,99.99
2018-01-06T06:17:48.287Z,99.99
2018-01-06T06:18:48.277Z,99.99
2018-01-06T06:19:48.284Z,99.99
2018-01-06T06:20:48.006Z,99.99
2018-01-06T06:21:48.259Z,99.99
2018-01-06T06:22:48.005Z,99.99
2018-01-06T06:23:48.244Z,99.99
2018-01-06T06:24:48.232Z,99.99
2018-01-06T06:25:48.238Z,99.99
2018-01-06T06:26:47.977Z,99.99
2018-01-06T06:27:48.233Z,99.99
2018-01-06T06:28:48.221Z,99.99
2018-01-06T06:29:48.212Z,99.99
2018-01-06T06:30:48.263Z,99.99
2018-01-06T06:31:48.204Z,99.99
2018-01-06T06:32:48.199Z,99.99
2018-01-06T06:33:48.199Z,99.99
2018-01-06T06:34:48.181Z,99.99
2018-01-06T06:35:48.180Z,99.99
2018-01-06T06:36:48.167Z,99.99
2018-01-06T06:37:47.909Z,99.99
2018-01-06T06:38:48.211Z,99.99
2018-01-06T06:39:48.154Z,99.99
2018-01-06T06:40:48.151Z,99.99
2018-01-06T06:41:48.150Z,99.99
2018-01-06T06:42:47.888Z,99.99
2018-01-06T06:43:48.136Z,99.99
2018-01-06T06:44:48.184Z,99.99
2018-01-06T06:45:48.219Z,99.99
2018-01-06T06:46:48.112Z,99.99
2018-01-06T06:47:47.858Z,99.99
2018-01-06T06:48:48.106Z,99.99
2018-01-06T06:49:48.097Z,99.99
2018-01-06T06:50:48.092Z,99.99
2018-01-06T06:51:48.100Z,99.99
2018-01-06T06:52:48.084Z,99.99
2018-01-06T06:53:47.827Z,99.99
2018-01-06T06:54:48.081Z,99.99
2018-01-06T06:55:48.067Z,99.99
2018-01-06T06:56:48.065Z,99.99
2018-01-06T06:57:48.058Z,99.99
2018-01-06T06:58:48.051Z,99.99
2018-01-06T06:59:48.046Z,99.99
2018-01-06T07:00:48.041Z,99.99
2018-01-06T07:01:48.040Z,99.99
2018-01-06T07:02:48.031Z,99.99
2018-01-06T07:03:47.775Z,99.99
2018-01-06T07:04:47.770Z,99.99
2018-01-06T07:05:48.028Z,99.99
2018-01-06T07:06:48.025Z,99.99
2018-01-06T07:07:48.014Z,99.99
2018-01-06T07:08:48.000Z,99.99
2018-01-06T07:09:47.995Z,99.99
2018-01-06T07:10:47.988Z,99.99
2018-01-06T07:11:47.732Z,99.99
2018-01-06T07:12:47.981Z,99.99
2018-01-06T07:13:47.972Z,99.99
2018-01-06T07:14:47.970Z,99.99
2018-01-06T07:15:47.965Z,99.99
2018-01-06T07:16:47.957Z,99.99
2018-01-06T07:17:47.959Z,99.99
2018-01-06T07:18:47.958Z,99.99
2018-01-06T07:19:47.942Z,99.99
2018-01-06T07:20:47.936Z,99.99
2018-01-06T07:21:47.930Z,99.99
2018-01-06T07:22:47.927Z,99.99
2018-01-06T07:23:47.920Z,99.99
2018-01-06T07:24:47.917Z,99.99
2018-01-06T07:25:47.916Z,99.99
2018-01-06T07:26:47.659Z,99.99
2018-01-06T07:27:47.650Z,99.99
2018-01-06T07:28:47.648Z,99.99
2018-01-06T07:29:47.895Z,99.99
2018-01-06T07:30:47.887Z,99.99
2018-01-06T07:31:47.882Z,99.99
2018-01-06T07:32:47.875Z,99.99
2018-01-06T07:33:47.877Z,99.99
2018-01-06T07:34:47.866Z,99.99
2018-01-06T07:35:47.860Z,99.99
2018-01-06T07:36:47.903Z,99.99
2018-01-06T07:37:47.851Z,99.99
2018-01-06T07:38:47.593Z,99.99
2018-01-06T07:39:47.841Z,99.99
2018-01-06T07:40:47.851Z,99.99
2018-01-06T07:41:47.831Z,99.99
2018-01-06T07:42:47.827Z,99.99
2018-01-06T07:43:47.566Z,99.99
2018-01-06T07:44:47.817Z,99.99
2018-01-06T07:45:47.577Z,99.99
2018-01-06T07:46:47.809Z,99.99
2018-01-06T07:47:47.815Z,99.99
2018-01-06T07:48:47.791Z,99.99
2018-01-06T07:49:47.541Z,99.99
2018-01-06T07:50:47.800Z,99.99
2018-01-06T07:51:47.786Z,99.99
2018-01-06T07:52:47.773Z,99.99
2018-01-06T07:53:47.561Z,99.99
2018-01-06T07:54:47.772Z,99.99
2018-01-06T07:55:47.760Z,99.99
2018-01-06T07:56:47.754Z,99.99
2018-01-06T07:57:47.753Z,99.99
2018-01-06T07:58:47.746Z,99.99
2018-01-06T07:59:47.750Z,99.99
2018-01-06T08:00:47.737Z,99.99
2018-01-06T08:01:47.734Z,99.99
2018-01-06T08:02:47.724Z,99.99
2018-01-06T08:03:47.718Z,99.99
2018-01-06T08:04:47.719Z,99.99
2018-01-06T08:05:47.710Z,99.99
2018-01-06T08:06:47.704Z,99.99
2018-01-06T08:07:47.698Z,99.99
2018-01-06T08:08:47.717Z,99.99
2018-01-06T08:09:47.699Z,99.99
2018-01-06T08:10:47.696Z,99.99
2018-01-06T08:11:47.680Z,99.99
2018-01-06T08:12:47.681Z,99.99
2018-01-06T08:13:47.422Z,99.99
2018-01-06T08:14:47.669Z,99.99
2018-01-06T08:15:47.659Z,99.99
2018-01-06T08:16:47.665Z,99.99
2018-01-06T08:17:47.659Z,99.99
2018-01-06T08:18:47.393Z,99.99
2018-01-06T08:19:47.641Z,99.99
2018-01-06T08:20:47.420Z,99.99
2018-01-06T08:21:47.633Z,99.99
2018-01-06T08:22:47.630Z,99.99
2018-01-06T08:23:47.629Z,99.99
2018-01-06T08:24:47.621Z,99.99
2018-01-06T08:25:47.620Z,99.99
2018-01-06T08:26:47.633Z,99.99
2018-01-06T08:27:47.761Z,99.99
2018-01-06T08:28:47.608Z,99.99
2018-01-06T08:29:47.591Z,99.99
2018-01-06T08:30:47.587Z,99.99
2018-01-06T08:31:47.585Z,99.99
2018-01-06T08:32:47.577Z,99.99
2018-01-06T08:33:47.327Z,99.99
2018-01-06T08:34:47.568Z,99.99
2018-01-06T08:35:47.569Z,99.99
2018-01-06T08:36:47.307Z,99.99
2018-01-06T08:37:47.555Z,99.99
2018-01-06T08:38:47.300Z,99.99
2018-01-06T08:39:47.299Z,99.99
2018-01-06T08:40:47.289Z,99.99
2018-01-06T08:41:47.287Z,99.99
2018-01-06T08:42:47.279Z,99.99
2018-01-06T08:43:47.530Z,99.99
2018-01-06T08:44:47.547Z,99.99
2018-01-06T08:45:47.518Z,99.99
2018-01-06T08:46:47.516Z,99.99
2018-01-06T08:47:47.267Z,99.99
2018-01-06T08:48:47.505Z,99.99
2018-01-06T08:49:47.248Z,99.99
2018-01-06T08:50:47.247Z,99.99
2018-01-06T08:51:47.491Z,99.99
2018-01-06T08:52:47.236Z,99.99
2018-01-06T08:53:47.485Z,99.99
2018-01-06T08:54:47.477Z,99.99
2018-01-06T08:55:47.479Z,99.99
2018-01-06T08:56:47.475Z,99.99
2018-01-06T08:57:47.474Z,99.99
2018-01-06T08:58:47.465Z,99.99
2018-01-06T08:59:47.461Z,99.99
2018-01-06T09:00:47.465Z,99.99
2018-01-06T09:01:47.459Z,99.99
2018-01-06T09:02:47.457Z,99.99
2018-01-06T09:03:47.444Z,99.99
2018-01-06T09:04:47.441Z,99.99
2018-01-06T09:05:47.437Z,99.99
2018-01-06T09:06:47.441Z,99.99
2018-01-06T09:07:47.429Z,99.99
2018-01-06T09:08:47.176Z,99.99
2018-01-06T09:09:47.428Z,99.99
2018-01-06T09:10:47.434Z,99.99
2018-01-06T09:11:47.412Z,99.99
2018-01-06T09:12:47.478Z,99.99
2018-01-06T09:13:47.402Z,99.99
2018-01-06T09:14:47.400Z,99.99
2018-01-06T09:15:47.401Z,99.99
2018-01-06T09:16:47.393Z,99.99
2018-01-06T09:17:47.385Z,99.99
2018-01-06T09:18:47.393Z,99.99
2018-01-06T09:19:47.129Z,99.99
2018-01-06T09:20:47.381Z,99.99
2018-01-06T09:21:47.377Z,99.99
2018-01-06T09:22:47.370Z,99.99
2018-01-06T09:23:47.119Z,99.99
2018-01-06T09:24:47.420Z,99.99
2018-01-06T09:25:47.363Z,99.99
2018-01-06T09:26:47.357Z,99.99
2018-01-06T09:27:48.357Z,99.99
2018-01-06T09:28:47.349Z,99.99
2018-01-06T09:29:47.346Z,99.99
2018-01-06T09:30:47.358Z,99.99
2018-01-06T09:31:47.342Z,99.99
2018-01-06T09:32:47.335Z,99.99
2018-01-06T09:33:47.333Z,99.99
2018-01-06T09:34:47.085Z,99.99
2018-01-06T09:35:47.322Z,99.99
2018-01-06T09:36:47.320Z,99.99
2018-01-06T09:37:47.322Z,99.99
2018-01-06T09:38:47.314Z,99.99
2018-01-06T09:39:47.313Z,99.99
2018-01-06T09:40:47.311Z,99.99
2018-01-06T09:41:47.316Z,99.99
2018-01-06T09:42:47.304Z,99.99
2018-01-06T09:43:47.052Z,99.99
2018-01-06T09:44:47.311Z,99.99
2018-01-06T09:45:47.305Z,99.99
2018-01-06T09:46:47.042Z,99.99
2018-01-06T09:47:47.294Z,99.99
2018-01-06T09:48:47.299Z,99.99
2018-01-06T09:49:47.287Z,99.99
2018-01-06T09:50:47.297Z,99.99
2018-01-06T09:51:47.036Z,99.99
2018-01-06T09:52:47.286Z,99.99
2018-01-06T09:53:47.276Z,99.99
2018-01-06T09:54:47.272Z,99.99
2018-01-06T09:55:47.276Z,99.99
2018-01-06T09:56:47.016Z,99.99
2018-01-06T09:57:47.015Z,99.99
2018-01-06T09:58:47.262Z,99.99
2018-01-06T09:59:47.263Z,99.99
2018-01-06T10:00:47.262Z,99.99
2018-01-06T10:01:47.254Z,99.99
2018-01-06T10:02:47.255Z,99.99
2018-01-06T10:03:47.250Z,99.99
2018-01-06T10:04:47.252Z,99.99
2018-01-06T10:05:47.249Z,99.99
2018-01-06T10:06:47.253Z,99.99
2018-01-06T10:07:47.253Z,99.99
2018-01-06T10:08:47.266Z,99.99
2018-01-06T10:09:47.238Z,99.99
2018-01-06T10:10:47.233Z,99.99
2018-01-06T10:11:47.230Z,99.99
2018-01-06T10:12:46.975Z,99.99
2018-01-06T10:13:47.226Z,99.99
2018-01-06T10:14:47.227Z,99.99
2018-01-06T10:15:47.224Z,99.99
2018-01-06T10:16:47.217Z,99.99
2018-01-06T10:17:47.212Z,99.99
2018-01-06T10:18:47.211Z,99.99
2018-01-06T10:19:47.206Z,99.99
2018-01-06T10:20:47.205Z,99.99
2018-01-06T10:21:46.957Z,99.99
2018-01-06T10:22:46.948Z,99.99
2018-01-06T10:52:38.456Z,99.99
2018-01-06T10:53:38.445Z,99.99
2018-01-06T10:54:38.438Z,99.99
2018-01-06T10:55:38.428Z,99.99
2018-01-06T10:56:38.420Z,99.99
2018-01-06T10:57:38.411Z,99.99
2018-01-06T10:58:38.437Z,99.99
2018-01-06T10:59:38.400Z,99.99
2018-01-06T11:00:38.202Z,99.99
2018-01-06T11:01:38.390Z,99.99
2018-01-06T11:02:38.133Z,99.99
2018-01-06T11:03:38.380Z,99.99
2018-01-06T11:04:38.380Z,99.99
2018-01-06T11:05:38.374Z,99.99
2018-01-06T11:06:38.116Z,99.99
2018-01-06T11:07:38.370Z,99.99
2018-01-06T11:08:38.360Z,99.99
2018-01-06T11:09:38.367Z,99.99
2018-01-06T11:10:38.105Z,99.99
2018-01-06T11:11:38.351Z,99.99
2018-01-06T11:12:38.350Z,99.99
2018-01-06T11:13:38.344Z,99.99
2018-01-06T11:14:38.344Z,99.99
2018-01-06T11:15:38.341Z,99.99
2018-01-06T11:16:38.339Z,99.99
2018-01-06T11:17:38.223Z,99.99
2018-01-06T11:18:38.342Z,99.99
2018-01-06T11:19:38.333Z,99.99
2018-01-06T11:20:38.332Z,99.99
2018-01-06T11:21:38.325Z,99.99
2018-01-06T11:22:38.326Z,99.99
2018-01-06T11:23:38.324Z,99.99
2018-01-06T11:24:38.325Z,99.99
2018-01-06T11:25:38.079Z,99.99
2018-01-06T11:26:38.318Z,99.99
2018-01-06T11:27:38.316Z,99.99
2018-01-06T11:28:38.316Z,99.99
2018-01-06T11:29:38.070Z,99.99
2018-01-06T11:30:38.059Z,99.99
2018-01-06T11:31:38.137Z,99.99
2018-01-06T11:32:38.060Z,99.99
2018-01-06T11:33:38.139Z,99.99
2018-01-06T11:34:38.894Z,99.99
2018-01-06T11:35:38.304Z,99.61
2018-01-06T11:36:38.300Z,99.57
2018-01-06T11:37:38.302Z,97.85
2018-01-06T11:38:38.304Z,96.51
2018-01-06T11:39:38.307Z,96.61
2018-01-06T11:40:38.049Z,96.51
2018-01-06T11:41:38.309Z,96.13
2018-01-06T11:42:38.306Z,96.8
2018-01-06T11:43:38.054Z,97.18
2018-01-06T11:44:38.302Z,97.08
2018-01-06T11:45:38.053Z,96.8
2018-01-06T11:46:38.321Z,96.13
2018-01-06T11:47:38.302Z,96.03
2018-01-06T11:48:38.311Z,96.61
2018-01-06T11:49:38.314Z,96.42
2018-01-06T11:50:38.296Z,96.51
2018-01-06T11:51:38.289Z,97.27
2018-01-06T11:52:38.287Z,98.27
2018-01-06T11:53:38.042Z,98.85
2018-01-06T11:54:38.288Z,98.27
2018-01-06T11:55:38.309Z,97.22
2018-01-06T11:56:38.286Z,97.99
2018-01-06T11:57:38.283Z,98.18
2018-01-06T11:58:38.043Z,98.66
2018-01-06T11:59:38.284Z,98.94
2018-01-06T12:00:38.281Z,97.94
2018-01-06T12:01:38.284Z,96.7
2018-01-06T12:02:38.062Z,95.65
2018-01-06T12:03:38.282Z,94.7
2018-01-06T12:04:38.281Z,95.46
2018-01-06T12:05:38.066Z,96.22
2018-01-06T12:06:38.277Z,96.22
2018-01-06T12:07:38.276Z,95.27
2018-01-06T12:08:38.278Z,94.31
2018-01-06T12:09:38.279Z,93.93
2018-01-06T12:10:38.276Z,92.69
2018-01-06T12:11:38.046Z,92.12
2018-01-06T12:12:38.277Z,91.55
2018-01-06T12:13:38.278Z,91.26
2018-01-06T12:14:38.272Z,90.11
2018-01-06T12:15:38.273Z,89.25
2018-01-06T12:16:38.085Z,87.48
2018-01-06T12:17:38.044Z,87.58
2018-01-06T12:18:38.271Z,87.39
2018-01-06T12:19:38.038Z,86.72
2018-01-06T12:20:38.270Z,84.43
2018-01-06T12:21:38.274Z,84.52
2018-01-06T12:22:38.270Z,84.62
2018-01-06T12:23:38.273Z,84.72
2018-01-06T12:24:38.277Z,85.19
2018-01-06T12:25:38.271Z,85.77
2018-01-06T12:26:38.279Z,86.05
2018-01-06T12:27:38.050Z,86.2
2018-01-06T12:28:38.270Z,86.58
2018-01-06T12:29:38.292Z,86.68
2018-01-06T12:30:38.272Z,86.68
2018-01-06T12:31:38.269Z,86.77
2018-01-06T12:32:38.041Z,87.54
2018-01-06T12:33:38.044Z,87.25
2018-01-06T12:34:38.265Z,87.92
2018-01-06T12:35:38.263Z,88.3
2018-01-06T12:36:38.028Z,86.49
2018-01-06T12:37:38.266Z,86.3
2018-01-06T12:38:38.270Z,86.87
2018-01-06T12:39:38.048Z,87.63
2018-01-06T12:40:38.269Z,87.82
2018-01-06T12:41:38.016Z,88.01
2018-01-06T12:42:38.010Z,88.59
2018-01-06T12:43:38.268Z,88.78
2018-01-06T12:44:38.272Z,89.06
2018-01-06T12:45:38.257Z,88.49
2018-01-06T12:46:38.006Z,88.59
2018-01-06T12:47:38.258Z,88.59
2018-01-06T12:48:38.269Z,88.92
2018-01-06T12:49:38.010Z,88.34
2018-01-06T12:50:38.270Z,87.54
2018-01-06T12:51:38.028Z,88.01
2018-01-06T12:52:38.316Z,88.01
2018-01-06T12:53:38.256Z,87.82
2018-01-06T12:54:38.258Z,87.73
2018-01-06T12:55:38.009Z,87.73
2018-01-06T12:56:38.012Z,87.44
2018-01-06T12:57:38.247Z,87.44
2018-01-06T12:58:38.262Z,87.25
2018-01-06T12:59:38.018Z,87.63
2018-01-06T13:00:38.249Z,87.63
2018-01-06T13:01:38.245Z,87.44
2018-01-06T13:02:38.317Z,87.44
2018-01-06T13:03:37.996Z,86.1
2018-01-06T13:04:38.255Z,86.1
2018-01-06T13:05:38.003Z,86.3
2018-01-06T13:06:38.242Z,86.58
2018-01-06T13:07:38.243Z,86.96
2018-01-06T13:08:38.010Z,86.68
2018-01-06T13:09:38.000Z,86.96
2018-01-06T13:10:38.237Z,87.25
2018-01-06T13:11:38.279Z,87.11
2018-01-06T13:12:38.238Z,86.63
2018-01-06T13:13:38.251Z,86.2
2018-01-06T13:14:38.268Z,86.73
2018-01-06T13:15:37.996Z,86.73
2018-01-06T13:16:38.232Z,86.92
2018-01-06T13:17:37.991Z,87.59
2018-01-06T13:18:38.231Z,87.97
2018-01-06T13:19:38.225Z,87.78
2018-01-06T13:20:38.231Z,87.11
2018-01-06T13:21:38.241Z,87.78
2018-01-06T13:22:38.222Z,87.11